sensor_id;sensor_type;location;lat;lon;timestamp;pressure;altitude;pressure_sealevel;temperature;humidity
13080;BME280;6606;49.154;9.280;2023-10-09T00:03:00;100208.69;;;12.32;100.00
13080;BME280;6606;49.154;9.280;2023-10-09T00:05:44;100206.47;;;12.25;100.00
13080;BME280;6606;49.154;9.280;2023-10-09T00:08:27;100206.38;;;12.26;100.00
13080;BME280;6606;49.154;9.280;2023-10-09T00:11:12;100199.56;;;12.21;100.00
13080;BME280;6606;49.154;9.280;2023-10-09T00:13:58;100209.78;;;12.13;100.00
13080;BME280;6606;49.154;9.280;2023-10-09T00:16:41;100206.53;;;12.23;100.00
13080;BME280;6606;49.154;9.280;2023-10-09T00:19:27;100208.66;;;12.17;100.00
13080;BME280;6606;49.154;9.280;2023-10-09T00:22:13;100208.03;;;12.11;100.00
13080;BME280;6606;49.154;9.280;2023-10-09T00:25:08;100213.63;;;12.07;100.00
13080;BME280;6606;49.154;9.280;2023-10-09T00:27:53;100218.03;;;11.90;100.00
13080;BME280;6606;49.154;9.280;2023-10-09T00:30:41;100208.91;;;11.95;100.00
13080;BME280;6606;49.154;9.280;2023-10-09T00:33:22;100214.75;;;11.85;100.00
13080;BME280;6606;49.154;9.280;2023-10-09T00:36:05;100205.31;;;11.96;100.00
13080;BME280;6606;49.154;9.280;2023-10-09T00:38:50;100203.47;;;11.98;100.00
13080;BME280;6606;49.154;9.280;2023-10-09T00:41:34;100193.66;;;11.98;100.00
13080;BME280;6606;49.154;9.280;2023-10-09T00:44:16;100199.88;;;11.99;100.00
13080;BME280;6606;49.154;9.280;2023-10-09T00:47:00;100189.97;;;12.01;100.00
13080;BME280;6606;49.154;9.280;2023-10-09T00:49:52;100182.00;;;12.01;100.00
13080;BME280;6606;49.154;9.280;2023-10-09T00:52:44;100185.59;;;12.00;100.00
13080;BME280;6606;49.154;9.280;2023-10-09T00:55:32;100176.19;;;12.10;100.00
13080;BME280;6606;49.154;9.280;2023-10-09T00:58:25;100178.50;;;12.16;100.00
13080;BME280;6606;49.154;9.280;2023-10-09T01:01:11;100181.19;;;12.16;100.00
13080;BME280;6606;49.154;9.280;2023-10-09T01:03:57;100181.34;;;12.13;100.00
13080;BME280;6606;49.154;9.280;2023-10-09T01:06:41;100183.31;;;12.09;100.00
13080;BME280;6606;49.154;9.280;2023-10-09T01:09:26;100173.19;;;12.16;100.00
13080;BME280;6606;49.154;9.280;2023-10-09T01:12:09;100170.63;;;12.15;100.00
13080;BME280;6606;49.154;9.280;2023-10-09T01:14:57;100174.66;;;12.22;100.00
13080;BME280;6606;49.154;9.280;2023-10-09T01:17:40;100158.19;;;12.31;100.00
13080;BME280;6606;49.154;9.280;2023-10-09T01:20:27;100157.34;;;12.30;100.00
13080;BME280;6606;49.154;9.280;2023-10-09T01:23:13;100164.53;;;12.28;100.00
13080;BME280;6606;49.154;9.280;2023-10-09T01:25:55;100162.31;;;12.37;100.00
13080;BME280;6606;49.154;9.280;2023-10-09T01:28:37;100158.69;;;12.38;100.00
13080;BME280;6606;49.154;9.280;2023-10-09T01:31:19;100153.22;;;12.41;100.00
13080;BME280;6606;49.154;9.280;2023-10-09T01:34:01;100150.09;;;12.32;100.00
13080;BME280;6606;49.154;9.280;2023-10-09T01:36:44;100152.63;;;12.36;100.00
13080;BME280;6606;49.154;9.280;2023-10-09T01:39:31;100147.72;;;12.44;100.00
13080;BME280;6606;49.154;9.280;2023-10-09T01:42:20;100146.69;;;12.46;100.00
13080;BME280;6606;49.154;9.280;2023-10-09T01:45:12;100149.78;;;12.54;100.00
13080;BME280;6606;49.154;9.280;2023-10-09T01:48:07;100152.16;;;12.59;100.00
13080;BME280;6606;49.154;9.280;2023-10-09T01:50:49;100152.94;;;12.61;100.00
13080;BME280;6606;49.154;9.280;2023-10-09T01:53:32;100147.59;;;12.61;100.00
13080;BME280;6606;49.154;9.280;2023-10-09T01:56:20;100149.50;;;12.59;100.00
13080;BME280;6606;49.154;9.280;2023-10-09T01:59:01;100146.84;;;12.59;100.00
13080;BME280;6606;49.154;9.280;2023-10-09T02:01:46;100147.53;;;12.63;100.00
13080;BME280;6606;49.154;9.280;2023-10-09T02:04:28;100146.31;;;12.68;100.00
13080;BME280;6606;49.154;9.280;2023-10-09T02:07:11;100138.41;;;12.67;100.00
13080;BME280;6606;49.154;9.280;2023-10-09T02:09:56;100145.47;;;12.52;100.00
13080;BME280;6606;49.154;9.280;2023-10-09T02:12:39;100138.34;;;12.68;100.00
13080;BME280;6606;49.154;9.280;2023-10-09T02:15:21;100141.66;;;12.72;100.00
13080;BME280;6606;49.154;9.280;2023-10-09T02:18:21;100134.09;;;12.80;100.00
13080;BME280;6606;49.154;9.280;2023-10-09T02:21:20;100127.56;;;12.86;100.00
13080;BME280;6606;49.154;9.280;2023-10-09T02:24:13;100121.03;;;12.91;100.00
13080;BME280;6606;49.154;9.280;2023-10-09T02:27:09;100116.38;;;12.95;100.00
13080;BME280;6606;49.154;9.280;2023-10-09T02:29:54;100109.13;;;12.97;100.00
13080;BME280;6606;49.154;9.280;2023-10-09T02:32:39;100121.50;;;12.98;100.00
13080;BME280;6606;49.154;9.280;2023-10-09T02:35:22;100120.84;;;12.94;100.00
13080;BME280;6606;49.154;9.280;2023-10-09T02:38:11;100119.81;;;12.97;100.00
13080;BME280;6606;49.154;9.280;2023-10-09T02:40:55;100119.81;;;12.97;100.00
13080;BME280;6606;49.154;9.280;2023-10-09T02:43:59;100120.50;;;12.85;100.00
13080;BME280;6606;49.154;9.280;2023-10-09T02:46:52;100125.13;;;12.97;100.00
13080;BME280;6606;49.154;9.280;2023-10-09T02:49:38;100120.41;;;13.02;100.00
13080;BME280;6606;49.154;9.280;2023-10-09T02:52:20;100119.06;;;13.09;100.00
13080;BME280;6606;49.154;9.280;2023-10-09T02:55:06;100124.19;;;12.98;100.00
13080;BME280;6606;49.154;9.280;2023-10-09T02:57:55;100117.91;;;12.99;100.00
13080;BME280;6606;49.154;9.280;2023-10-09T03:00:45;100116.38;;;12.95;100.00
13080;BME280;6606;49.154;9.280;2023-10-09T03:03:30;100113.25;;;13.03;100.00
13080;BME280;6606;49.154;9.280;2023-10-09T03:06:16;100107.72;;;13.06;100.00
13080;BME280;6606;49.154;9.280;2023-10-09T03:09:05;100104.59;;;12.99;100.00
13080;BME280;6606;49.154;9.280;2023-10-09T03:11:59;100100.88;;;13.02;100.00
13080;BME280;6606;49.154;9.280;2023-10-09T03:14:44;100087.63;;;13.00;100.00
13080;BME280;6606;49.154;9.280;2023-10-09T03:17:25;100091.06;;;13.02;100.00
13080;BME280;6606;49.154;9.280;2023-10-09T03:20:11;100096.06;;;12.92;100.00
13080;BME280;6606;49.154;9.280;2023-10-09T03:22:54;100089.88;;;12.92;100.00
13080;BME280;6606;49.154;9.280;2023-10-09T03:25:36;100089.09;;;12.90;100.00
13080;BME280;6606;49.154;9.280;2023-10-09T03:28:18;100088.88;;;12.78;100.00
13080;BME280;6606;49.154;9.280;2023-10-09T03:30:59;100094.81;;;12.84;100.00
13080;BME280;6606;49.154;9.280;2023-10-09T03:33:43;100092.47;;;12.77;100.00
13080;BME280;6606;49.154;9.280;2023-10-09T03:36:27;100100.66;;;12.74;100.00
13080;BME280;6606;49.154;9.280;2023-10-09T03:39:09;100102.66;;;12.71;100.00
13080;BME280;6606;49.154;9.280;2023-10-09T03:42:05;100105.38;;;12.69;100.00
13080;BME280;6606;49.154;9.280;2023-10-09T03:44:52;100104.13;;;12.61;100.00
13080;BME280;6606;49.154;9.280;2023-10-09T03:47:34;100117.03;;;12.52;100.00
13080;BME280;6606;49.154;9.280;2023-10-09T03:50:15;100109.09;;;12.51;100.00
13080;BME280;6606;49.154;9.280;2023-10-09T03:53:08;100105.81;;;12.62;100.00
13080;BME280;6606;49.154;9.280;2023-10-09T03:55:52;100118.66;;;12.55;100.00
13080;BME280;6606;49.154;9.280;2023-10-09T03:58:35;100110.72;;;12.53;100.00
13080;BME280;6606;49.154;9.280;2023-10-09T04:01:18;100116.50;;;12.46;100.00
13080;BME280;6606;49.154;9.280;2023-10-09T04:04:07;100116.50;;;12.46;100.00
13080;BME280;6606;49.154;9.280;2023-10-09T04:06:51;100110.59;;;12.41;100.00
13080;BME280;6606;49.154;9.280;2023-10-09T04:09:36;100120.03;;;12.30;100.00
13080;BME280;6606;49.154;9.280;2023-10-09T04:12:20;100115.56;;;12.15;100.00
13080;BME280;6606;49.154;9.280;2023-10-09T04:15:06;100120.00;;;11.99;100.00
13080;BME280;6606;49.154;9.280;2023-10-09T04:17:55;100119.50;;;12.08;100.00
13080;BME280;6606;49.154;9.280;2023-10-09T04:20:37;100122.09;;;12.09;100.00
13080;BME280;6606;49.154;9.280;2023-10-09T04:23:40;100121.97;;;12.11;100.00
13080;BME280;6606;49.154;9.280;2023-10-09T04:26:41;100127.03;;;12.00;100.00
13080;BME280;6606;49.154;9.280;2023-10-09T04:29:25;100122.16;;;12.08;100.00
13080;BME280;6606;49.154;9.280;2023-10-09T04:32:17;100114.78;;;12.13;100.00
13080;BME280;6606;49.154;9.280;2023-10-09T04:34:59;100120.03;;;12.15;100.00
13080;BME280;6606;49.154;9.280;2023-10-09T04:38:07;100108.66;;;12.11;100.00
13080;BME280;6606;49.154;9.280;2023-10-09T04:40:49;100109.00;;;12.05;100.00
13080;BME280;6606;49.154;9.280;2023-10-09T04:43:41;100102.50;;;12.10;100.00
13080;BME280;6606;49.154;9.280;2023-10-09T04:46:25;100103.69;;;12.05;100.00
13080;BME280;6606;49.154;9.280;2023-10-09T04:49:07;100092.50;;;11.98;100.00
13080;BME280;6606;49.154;9.280;2023-10-09T04:52:06;100084.81;;;12.09;100.00
13080;BME280;6606;49.154;9.280;2023-10-09T04:54:59;100085.13;;;12.19;100.00
13080;BME280;6606;49.154;9.280;2023-10-09T04:57:56;100077.94;;;12.21;100.00
13080;BME280;6606;49.154;9.280;2023-10-09T05:00:52;100077.00;;;12.22;100.00
13080;BME280;6606;49.154;9.280;2023-10-09T05:03:53;100069.94;;;12.21;100.00
13080;BME280;6606;49.154;9.280;2023-10-09T05:06:37;100080.09;;;12.30;100.00
13080;BME280;6606;49.154;9.280;2023-10-09T05:09:35;100074.59;;;12.33;100.00
13080;BME280;6606;49.154;9.280;2023-10-09T05:12:36;100071.66;;;12.38;100.00
13080;BME280;6606;49.154;9.280;2023-10-09T05:15:21;100071.75;;;12.37;100.00
13080;BME280;6606;49.154;9.280;2023-10-09T05:18:08;100081.63;;;12.34;100.00
13080;BME280;6606;49.154;9.280;2023-10-09T05:20:56;100077.66;;;12.42;100.00
13080;BME280;6606;49.154;9.280;2023-10-09T05:23:46;100090.13;;;12.41;100.00
13080;BME280;6606;49.154;9.280;2023-10-09T05:26:53;100098.13;;;12.41;100.00
13080;BME280;6606;49.154;9.280;2023-10-09T05:29:55;100090.63;;;12.48;100.00
13080;BME280;6606;49.154;9.280;2023-10-09T05:32:54;100101.66;;;12.42;100.00
13080;BME280;6606;49.154;9.280;2023-10-09T05:36:07;100109.03;;;12.52;100.00
13080;BME280;6606;49.154;9.280;2023-10-09T05:39:14;100100.78;;;12.57;100.00
13080;BME280;6606;49.154;9.280;2023-10-09T05:42:02;100101.53;;;12.59;100.00
13080;BME280;6606;49.154;9.280;2023-10-09T05:44:50;100100.78;;;12.57;100.00
13080;BME280;6606;49.154;9.280;2023-10-09T05:47:57;100104.56;;;12.53;100.00
13080;BME280;6606;49.154;9.280;2023-10-09T05:50:38;100105.59;;;12.50;100.00
13080;BME280;6606;49.154;9.280;2023-10-09T05:53:41;100104.91;;;12.63;100.00
13080;BME280;6606;49.154;9.280;2023-10-09T05:56:37;100108.75;;;12.73;100.00
13080;BME280;6606;49.154;9.280;2023-10-09T05:59:36;100112.63;;;12.67;100.00
13080;BME280;6606;49.154;9.280;2023-10-09T06:02:35;100126.69;;;12.85;100.00
13080;BME280;6606;49.154;9.280;2023-10-09T06:05:33;100120.66;;;12.97;100.00
13080;BME280;6606;49.154;9.280;2023-10-09T06:08:32;100121.06;;;13.06;100.00
13080;BME280;6606;49.154;9.280;2023-10-09T06:11:31;100125.94;;;13.13;100.00
13080;BME280;6606;49.154;9.280;2023-10-09T06:14:27;100139.03;;;13.18;100.00
13080;BME280;6606;49.154;9.280;2023-10-09T06:17:23;100129.00;;;13.07;100.00
13080;BME280;6606;49.154;9.280;2023-10-09T06:20:07;100129.13;;;13.04;100.00
13080;BME280;6606;49.154;9.280;2023-10-09T06:23:09;100128.34;;;13.18;100.00
13080;BME280;6606;49.154;9.280;2023-10-09T06:25:57;100129.03;;;13.21;100.00
13080;BME280;6606;49.154;9.280;2023-10-09T06:28:47;100146.22;;;13.32;100.00
13080;BME280;6606;49.154;9.280;2023-10-09T06:31:30;100133.47;;;13.37;100.00
13080;BME280;6606;49.154;9.280;2023-10-09T06:34:32;100134.72;;;13.31;100.00
13080;BME280;6606;49.154;9.280;2023-10-09T06:37:13;100135.19;;;13.38;100.00
13080;BME280;6606;49.154;9.280;2023-10-09T06:40:14;100137.41;;;13.46;100.00
13080;BME280;6606;49.154;9.280;2023-10-09T06:43:19;100139.41;;;13.56;100.00
13080;BME280;6606;49.154;9.280;2023-10-09T06:46:15;100147.63;;;13.68;100.00
13080;BME280;6606;49.154;9.280;2023-10-09T06:49:14;100139.84;;;13.79;100.00
13080;BME280;6606;49.154;9.280;2023-10-09T06:52:13;100148.44;;;13.84;100.00
13080;BME280;6606;49.154;9.280;2023-10-09T06:54:55;100143.66;;;14.03;100.00
13080;BME280;6606;49.154;9.280;2023-10-09T06:57:37;100145.34;;;14.04;100.00
13080;BME280;6606;49.154;9.280;2023-10-09T07:00:29;100140.00;;;14.04;100.00
13080;BME280;6606;49.154;9.280;2023-10-09T07:03:46;100137.72;;;14.13;100.00
13080;BME280;6606;49.154;9.280;2023-10-09T07:06:33;100135.13;;;14.25;100.00
13080;BME280;6606;49.154;9.280;2023-10-09T07:09:29;100132.28;;;14.14;100.00
13080;BME280;6606;49.154;9.280;2023-10-09T07:12:23;100131.31;;;14.29;100.00
13080;BME280;6606;49.154;9.280;2023-10-09T07:15:08;100136.00;;;14.40;100.00
13080;BME280;6606;49.154;9.280;2023-10-09T07:18:13;100142.09;;;14.57;100.00
13080;BME280;6606;49.154;9.280;2023-10-09T07:21:06;100144.25;;;14.64;100.00
13080;BME280;6606;49.154;9.280;2023-10-09T07:23:52;100145.94;;;14.80;100.00
13080;BME280;6606;49.154;9.280;2023-10-09T07:26:38;100138.41;;;14.72;100.00
13080;BME280;6606;49.154;9.280;2023-10-09T07:29:29;100138.34;;;14.86;100.00
13080;BME280;6606;49.154;9.280;2023-10-09T07:32:27;100156.78;;;14.91;100.00
13080;BME280;6606;49.154;9.280;2023-10-09T07:35:09;100146.97;;;15.04;100.00
13080;BME280;6606;49.154;9.280;2023-10-09T07:38:06;100148.66;;;15.32;100.00
13080;BME280;6606;49.154;9.280;2023-10-09T07:40:51;100143.22;;;15.47;100.00
13080;BME280;6606;49.154;9.280;2023-10-09T07:43:40;100152.91;;;15.49;100.00
13080;BME280;6606;49.154;9.280;2023-10-09T07:46:25;100149.03;;;15.66;100.00
13080;BME280;6606;49.154;9.280;2023-10-09T07:49:14;100148.44;;;15.75;100.00
13080;BME280;6606;49.154;9.280;2023-10-09T07:52:01;100146.28;;;15.80;100.00
13080;BME280;6606;49.154;9.280;2023-10-09T07:54:44;100146.28;;;15.93;100.00
13080;BME280;6606;49.154;9.280;2023-10-09T07:57:33;100150.56;;;15.96;100.00
13080;BME280;6606;49.154;9.280;2023-10-09T08:00:22;100153.34;;;16.07;100.00
13080;BME280;6606;49.154;9.280;2023-10-09T08:03:39;100153.13;;;15.97;100.00
13080;BME280;6606;49.154;9.280;2023-10-09T08:06:21;100157.00;;;16.06;100.00
13080;BME280;6606;49.154;9.280;2023-10-09T08:09:22;100166.44;;;16.12;100.00
13080;BME280;6606;49.154;9.280;2023-10-09T08:12:28;100158.03;;;16.16;100.00
13080;BME280;6606;49.154;9.280;2023-10-09T08:15:38;100162.75;;;16.25;100.00
13080;BME280;6606;49.154;9.280;2023-10-09T08:18:31;100153.16;;;16.47;100.00
13080;BME280;6606;49.154;9.280;2023-10-09T08:21:25;100148.75;;;16.59;100.00
13080;BME280;6606;49.154;9.280;2023-10-09T08:24:20;100158.22;;;16.88;100.00
13080;BME280;6606;49.154;9.280;2023-10-09T08:27:37;100157.84;;;16.93;100.00
13080;BME280;6606;49.154;9.280;2023-10-09T08:30:35;100155.63;;;17.11;100.00
13080;BME280;6606;49.154;9.280;2023-10-09T08:33:29;100167.38;;;17.21;100.00
13080;BME280;6606;49.154;9.280;2023-10-09T08:36:24;100168.75;;;17.27;100.00
13080;BME280;6606;49.154;9.280;2023-10-09T08:39:08;100168.88;;;17.49;100.00
13080;BME280;6606;49.154;9.280;2023-10-09T08:41:57;100178.78;;;17.60;100.00
13080;BME280;6606;49.154;9.280;2023-10-09T08:44:43;100178.97;;;17.81;100.00
13080;BME280;6606;49.154;9.280;2023-10-09T08:47:29;100180.66;;;17.82;100.00
13080;BME280;6606;49.154;9.280;2023-10-09T08:50:13;100187.28;;;17.89;100.00
13080;BME280;6606;49.154;9.280;2023-10-09T08:52:55;100191.09;;;18.09;100.00
13080;BME280;6606;49.154;9.280;2023-10-09T08:55:39;100193.66;;;18.11;100.00
13080;BME280;6606;49.154;9.280;2023-10-09T08:58:22;100203.19;;;18.03;100.00
13080;BME280;6606;49.154;9.280;2023-10-09T09:01:17;100213.81;;;18.16;100.00
13080;BME280;6606;49.154;9.280;2023-10-09T09:04:01;100205.91;;;18.49;100.00
13080;BME280;6606;49.154;9.280;2023-10-09T09:06:43;100211.53;;;18.79;100.00
13080;BME280;6606;49.154;9.280;2023-10-09T09:09:25;100206.00;;;18.92;100.00
13080;BME280;6606;49.154;9.280;2023-10-09T09:12:13;100199.97;;;19.00;100.00
13080;BME280;6606;49.154;9.280;2023-10-09T09:14:55;100203.59;;;19.21;100.00
13080;BME280;6606;49.154;9.280;2023-10-09T09:17:39;100194.84;;;19.40;100.00
13080;BME280;6606;49.154;9.280;2023-10-09T09:20:24;100189.94;;;19.66;100.00
13080;BME280;6606;49.154;9.280;2023-10-09T09:23:17;100190.41;;;19.92;100.00
13080;BME280;6606;49.154;9.280;2023-10-09T09:26:04;100189.13;;;20.17;100.00
13080;BME280;6606;49.154;9.280;2023-10-09T09:28:52;100179.75;;;20.42;100.00
13080;BME280;6606;49.154;9.280;2023-10-09T09:31:35;100186.53;;;20.77;100.00
13080;BME280;6606;49.154;9.280;2023-10-09T09:34:20;100188.34;;;20.77;100.00
13080;BME280;6606;49.154;9.280;2023-10-09T09:37:06;100196.13;;;20.60;100.00
13080;BME280;6606;49.154;9.280;2023-10-09T09:39:54;100197.69;;;20.63;100.00
13080;BME280;6606;49.154;9.280;2023-10-09T09:42:39;100197.72;;;20.73;100.00
13080;BME280;6606;49.154;9.280;2023-10-09T09:45:29;100198.00;;;20.70;100.00
13080;BME280;6606;49.154;9.280;2023-10-09T09:48:16;100203.47;;;20.49;100.00
13080;BME280;6606;49.154;9.280;2023-10-09T09:51:01;100209.53;;;20.72;100.00
13080;BME280;6606;49.154;9.280;2023-10-09T09:53:47;100192.25;;;20.94;100.00
13080;BME280;6606;49.154;9.280;2023-10-09T09:56:29;100196.22;;;20.90;100.00
13080;BME280;6606;49.154;9.280;2023-10-09T09:59:11;100196.38;;;20.98;100.00
13080;BME280;6606;49.154;9.280;2023-10-09T10:02:01;100206.63;;;20.63;100.00
13080;BME280;6606;49.154;9.280;2023-10-09T10:04:51;100210.78;;;20.37;100.00
13080;BME280;6606;49.154;9.280;2023-10-09T10:07:37;100215.94;;;20.40;100.00
13080;BME280;6606;49.154;9.280;2023-10-09T10:10:37;100209.22;;;20.65;100.00
13080;BME280;6606;49.154;9.280;2023-10-09T10:13:54;100202.50;;;21.00;100.00
13080;BME280;6606;49.154;9.280;2023-10-09T10:17:00;100202.25;;;21.13;100.00
13080;BME280;6606;49.154;9.280;2023-10-09T10:20:02;100197.41;;;21.06;100.00
13080;BME280;6606;49.154;9.280;2023-10-09T10:23:17;100200.00;;;21.27;100.00
13080;BME280;6606;49.154;9.280;2023-10-09T10:26:16;100201.66;;;21.19;100.00
13080;BME280;6606;49.154;9.280;2023-10-09T10:29:19;100190.00;;;21.08;100.00
13080;BME280;6606;49.154;9.280;2023-10-09T10:32:06;100185.31;;;21.11;100.00
13080;BME280;6606;49.154;9.280;2023-10-09T10:34:53;100186.06;;;21.22;100.00
13080;BME280;6606;49.154;9.280;2023-10-09T10:37:38;100179.19;;;21.47;100.00
13080;BME280;6606;49.154;9.280;2023-10-09T10:40:30;100175.78;;;21.45;100.00
13080;BME280;6606;49.154;9.280;2023-10-09T10:43:21;100185.16;;;21.61;100.00
13080;BME280;6606;49.154;9.280;2023-10-09T10:46:15;100185.75;;;21.64;100.00
13080;BME280;6606;49.154;9.280;2023-10-09T10:49:05;100185.88;;;21.82;100.00
13080;BME280;6606;49.154;9.280;2023-10-09T10:51:57;100186.75;;;21.73;100.00
13080;BME280;6606;49.154;9.280;2023-10-09T10:55:07;100199.28;;;21.55;100.00
13080;BME280;6606;49.154;9.280;2023-10-09T10:57:58;100199.84;;;21.48;99.19
13080;BME280;6606;49.154;9.280;2023-10-09T11:00:41;100202.56;;;21.48;100.00
13080;BME280;6606;49.154;9.280;2023-10-09T11:03:40;100191.88;;;21.18;100.00
13080;BME280;6606;49.154;9.280;2023-10-09T11:06:42;100180.91;;;21.09;100.00
13080;BME280;6606;49.154;9.280;2023-10-09T11:09:28;100178.53;;;20.76;100.00
13080;BME280;6606;49.154;9.280;2023-10-09T11:12:16;100186.25;;;20.90;100.00
13080;BME280;6606;49.154;9.280;2023-10-09T11:15:06;100188.16;;;21.19;100.00
13080;BME280;6606;49.154;9.280;2023-10-09T11:17:57;100185.75;;;21.55;100.00
13080;BME280;6606;49.154;9.280;2023-10-09T11:20:51;100189.31;;;21.74;100.00
13080;BME280;6606;49.154;9.280;2023-10-09T11:23:59;100186.59;;;21.65;100.00
13080;BME280;6606;49.154;9.280;2023-10-09T11:27:04;100188.03;;;21.49;100.00
13080;BME280;6606;49.154;9.280;2023-10-09T11:29:49;100183.47;;;21.40;100.00
13080;BME280;6606;49.154;9.280;2023-10-09T11:32:47;100174.69;;;21.67;100.00
13080;BME280;6606;49.154;9.280;2023-10-09T11:35:30;100178.66;;;21.73;100.00
13080;BME280;6606;49.154;9.280;2023-10-09T11:38:15;100193.88;;;21.55;98.69
13080;BME280;6606;49.154;9.280;2023-10-09T11:41:11;100191.88;;;21.76;100.00
13080;BME280;6606;49.154;9.280;2023-10-09T11:43:59;100194.00;;;21.82;94.32
13080;BME280;6606;49.154;9.280;2023-10-09T11:46:57;100182.13;;;22.03;95.91
13080;BME280;6606;49.154;9.280;2023-10-09T11:49:51;100182.16;;;22.30;95.56
13080;BME280;6606;49.154;9.280;2023-10-09T11:53:06;100176.09;;;22.83;91.96
13080;BME280;6606;49.154;9.280;2023-10-09T11:55:58;100161.88;;;22.99;94.05
13080;BME280;6606;49.154;9.280;2023-10-09T11:58:40;100155.66;;;23.07;86.84
13080;BME280;6606;49.154;9.280;2023-10-09T12:01:22;100154.38;;;23.11;89.75
13080;BME280;6606;49.154;9.280;2023-10-09T12:04:04;100145.03;;;23.23;84.30
13080;BME280;6606;49.154;9.280;2023-10-09T12:06:51;100122.00;;;23.27;85.34
13080;BME280;6606;49.154;9.280;2023-10-09T12:09:46;100065.09;;;23.27;84.35
13080;BME280;6606;49.154;9.280;2023-10-09T12:12:29;100038.69;;;23.12;82.10
13080;BME280;6606;49.154;9.280;2023-10-09T12:15:11;100055.59;;;23.23;84.88
13080;BME280;6606;49.154;9.280;2023-10-09T12:17:57;100077.41;;;23.04;86.51
13080;BME280;6606;49.154;9.280;2023-10-09T12:20:39;100073.16;;;23.19;88.12
13080;BME280;6606;49.154;9.280;2023-10-09T12:23:22;100069.00;;;23.51;84.76
13080;BME280;6606;49.154;9.280;2023-10-09T12:26:08;100078.66;;;23.27;81.45
13080;BME280;6606;49.154;9.280;2023-10-09T12:28:54;100083.38;;;23.25;81.52
13080;BME280;6606;49.154;9.280;2023-10-09T12:31:38;100089.03;;;22.78;82.52
13080;BME280;6606;49.154;9.280;2023-10-09T12:34:20;100082.69;;;22.88;88.84
13080;BME280;6606;49.154;9.280;2023-10-09T12:37:07;100088.72;;;23.17;84.82
13080;BME280;6606;49.154;9.280;2023-10-09T12:39:50;100088.41;;;22.84;83.10
13080;BME280;6606;49.154;9.280;2023-10-09T12:42:36;100086.47;;;23.13;86.10
13080;BME280;6606;49.154;9.280;2023-10-09T12:45:18;100081.75;;;22.97;83.65
13080;BME280;6606;49.154;9.280;2023-10-09T12:48:06;100070.94;;;23.41;83.90
13080;BME280;6606;49.154;9.280;2023-10-09T12:50:50;100068.84;;;23.53;78.33
13080;BME280;6606;49.154;9.280;2023-10-09T12:53:34;100063.09;;;23.56;80.28
13080;BME280;6606;49.154;9.280;2023-10-09T12:56:23;100058.84;;;24.13;79.05
13080;BME280;6606;49.154;9.280;2023-10-09T12:59:13;100067.25;;;24.02;77.82
13080;BME280;6606;49.154;9.280;2023-10-09T13:01:55;100061.75;;;23.86;77.80
13080;BME280;6606;49.154;9.280;2023-10-09T13:04:39;100059.53;;;23.55;76.44
13080;BME280;6606;49.154;9.280;2023-10-09T13:07:22;100051.13;;;23.40;75.51
13080;BME280;6606;49.154;9.280;2023-10-09T13:10:05;100053.66;;;23.94;78.30
13080;BME280;6606;49.154;9.280;2023-10-09T13:12:53;100052.03;;;24.09;69.62
13080;BME280;6606;49.154;9.280;2023-10-09T13:15:36;100051.53;;;23.80;69.57
13080;BME280;6606;49.154;9.280;2023-10-09T13:18:23;100058.06;;;23.87;69.37
13080;BME280;6606;49.154;9.280;2023-10-09T13:21:04;100063.47;;;23.87;69.37
13080;BME280;6606;49.154;9.280;2023-10-09T13:23:46;100056.16;;;24.22;68.45
13080;BME280;6606;49.154;9.280;2023-10-09T13:26:30;100044.09;;;24.75;64.87
13080;BME280;6606;49.154;9.280;2023-10-09T13:29:15;100045.78;;;24.76;62.83
13080;BME280;6606;49.154;9.280;2023-10-09T13:32:02;100040.34;;;24.68;59.36
13080;BME280;6606;49.154;9.280;2023-10-09T13:34:53;100030.66;;;24.82;59.29
13080;BME280;6606;49.154;9.280;2023-10-09T13:37:35;100031.19;;;24.69;61.22
13080;BME280;6606;49.154;9.280;2023-10-09T13:40:18;100029.13;;;24.71;58.80
13080;BME280;6606;49.154;9.280;2023-10-09T13:43:07;100033.22;;;24.83;55.98
13080;BME280;6606;49.154;9.280;2023-10-09T13:45:58;100028.47;;;24.93;52.64
13080;BME280;6606;49.154;9.280;2023-10-09T13:48:44;100026.44;;;24.87;51.77
13080;BME280;6606;49.154;9.280;2023-10-09T13:51:26;100015.22;;;25.07;51.13
13080;BME280;6606;49.154;9.280;2023-10-09T13:54:10;100015.38;;;25.38;50.77
13080;BME280;6606;49.154;9.280;2023-10-09T13:56:58;100016.72;;;25.42;52.21
13080;BME280;6606;49.154;9.280;2023-10-09T13:59:41;100006.84;;;25.49;48.73
13080;BME280;6606;49.154;9.280;2023-10-09T14:02:30;99999.25;;;25.12;47.47
13080;BME280;6606;49.154;9.280;2023-10-09T14:05:12;100002.47;;;25.23;49.01
13080;BME280;6606;49.154;9.280;2023-10-09T14:07:54;100013.53;;;25.30;45.73
13080;BME280;6606;49.154;9.280;2023-10-09T14:10:40;100011.16;;;24.70;48.28
13080;BME280;6606;49.154;9.280;2023-10-09T14:13:22;100005.72;;;25.19;48.40
13080;BME280;6606;49.154;9.280;2023-10-09T14:16:08;100006.03;;;25.40;47.39
13080;BME280;6606;49.154;9.280;2023-10-09T14:19:05;99997.53;;;25.11;47.71
13080;BME280;6606;49.154;9.280;2023-10-09T14:21:53;99999.06;;;25.38;48.23
13080;BME280;6606;49.154;9.280;2023-10-09T14:24:34;99993.47;;;25.31;47.35
13080;BME280;6606;49.154;9.280;2023-10-09T14:27:18;99988.38;;;25.12;49.03
13080;BME280;6606;49.154;9.280;2023-10-09T14:29:59;99983.59;;;25.06;47.33
13080;BME280;6606;49.154;9.280;2023-10-09T14:32:44;99981.56;;;25.08;45.59
13080;BME280;6606;49.154;9.280;2023-10-09T14:35:33;99988.56;;;24.86;46.40
13080;BME280;6606;49.154;9.280;2023-10-09T14:38:15;99980.91;;;25.14;45.32
13080;BME280;6606;49.154;9.280;2023-10-09T14:40:59;99984.94;;;25.34;44.24
13080;BME280;6606;49.154;9.280;2023-10-09T14:43:42;99982.94;;;25.20;45.69
13080;BME280;6606;49.154;9.280;2023-10-09T14:46:24;99984.97;;;25.10;44.00
13080;BME280;6606;49.154;9.280;2023-10-09T14:49:06;99981.09;;;24.96;43.61